Nearby METAR Reports

 

KPAE - Everett, Washington, USA
Distance from station: NW 15mi, 25km
Updated: 06/19/2019 6:53am
Overcast
Overcast
 Wind from ESE
Wind: ESE 5 mph , 7 km/h
Temperature: 54°F , 12°C
Dew Point: 45°F , 7°C
Humidity: 72%
Barometer: 30.21 inHg , 1023 hPa
Clouds: Overcast
Visibility: 10 miles , 16 km
Cloud details: Overcast 2200 ft
2019/06/19 13:53 KPAE 191353Z 11004KT 10SM OVC022 12/07 A3021 RMK AO2 SLP230 T01170072
KBFI - Seattle/Boeing, Washington, USA
Distance from station: SW 20mi, 31km
Updated: 06/19/2019 6:53am
Overcast
Overcast
 Wind from SE
Wind: SE 8 mph , 13 km/h
Temperature: 55°F , 13°C
Dew Point: 45°F , 7°C
Humidity: 67%
Barometer: 30.21 inHg , 1023 hPa
Clouds: Overcast
Visibility: 10 miles , 16 km
Cloud details: Mostly cloudy 2100 ft
Overcast 3200 ft
2019/06/19 13:53 KBFI 191353Z 13007KT 10SM BKN021 OVC032 13/07 A3021 RMK AO2 SLP230 T01330072
KSEA - Seattle/Metro, Washington, USA
Distance from station: SSW 25mi, 41km
Updated: 06/19/2019 6:53am
Overcast
Overcast
 Wind from SSE
Wind: SSE 8 mph , 13 km/h
Temperature: 54°F , 12°C
Dew Point: 45°F , 7°C
Humidity: 72%
Barometer: 30.21 inHg , 1023 hPa
Clouds: Overcast
Visibility: 10 miles , 16 km
Cloud details: Mostly cloudy 2200 ft
Overcast 3000 ft
2019/06/19 13:53 KSEA 191353Z 16007KT 10SM BKN022 OVC030 12/07 A3021 RMK AO2 SLP236 T01220072
 
KAWO - Arlington Muni, Washington, USA
Distance from station: NNW 28mi, 46km
Updated: 06/19/2019 7:26am
Overcast
Overcast
 Wind from WNW
Wind: WNW 7 mph , 11 km/h
Temperature: 55°F , 13°C
Dew Point: 45°F , 7°C
Humidity: 67%
Barometer: 30.22 inHg , 1023.4 hPa
Clouds: Overcast
Visibility: 10 miles , 16 km
Cloud details: Overcast 2900 ft
2019/06/19 14:26 KAWO 191426Z AUTO 29006KT 10SM OVC029 13/07 A3022 RMK AO2
KPWT - Bremerton Ntnl, Washington, USA
Distance from station: WSW 38mi, 61km
Updated: 06/19/2019 6:56am
Overcast
Overcast
 Wind from ESE
Wind: ESE 3 mph , 6 km/h
Temperature: 52°F , 11°C
Dew Point: 46°F , 8°C
Humidity: 82%
Barometer: 30.20 inHg , 1022.7 hPa
Clouds: Overcast
Visibility: 10 miles , 16 km
Cloud details: Overcast 1300 ft
2019/06/19 13:56 KPWT 191356Z AUTO 12003KT 10SM OVC013 11/08 A3020 RMK AO2 SLP246 T01110083
KTIW - Tacoma, Washington, USA
Distance from station: SW 43mi, 69km
Updated: 06/19/2019 6:53am
Overcast
Overcast
 Wind from S
Wind: S 6 mph , 9 km/h
Temperature: 52°F , 11°C
Dew Point: 45°F , 7°C
Humidity: 77%
Barometer: 30.22 inHg , 1023.4 hPa
Clouds: Overcast
Visibility: 10 miles , 16 km
Cloud details: Overcast 1900 ft
2019/06/19 13:53 KTIW 191353Z AUTO 18005KT 10SM OVC019 11/07 A3022 RMK AO2 SLP231 T01060067
 
KPLU - Puyallup/Thun, Washington, USA
Distance from station: SSW 47mi, 76km
Updated: 06/19/2019 7:35am
Overcast
Overcast
 Wind from calm
Wind: Calm
Temperature: 54°F , 12°C
Dew Point: 46°F , 8°C
Humidity: 77%
Barometer: 30.23 inHg , 1023.7 hPa
Clouds: Overcast
Visibility: 10 miles , 16 km
Cloud details: Mostly cloudy 2100 ft
Overcast 3300 ft
2019/06/19 14:35 KPLU 191435Z AUTO 00000KT 10SM BKN021 OVC033 12/08 A3023 RMK AO2
KSMP - Stampede Pass, Washington, USA
Distance from station: SE 47mi, 76km
Updated: 06/19/2019 6:56am
Fog, Overcast
Fog, Overcast
 Wind from varies
Wind: varies 5 mph , 7 km/h
Temperature: 39°F , 4°C
Wind Chill: 35°F , 2°C
Dew Point: 37°F , 3°C
Humidity: 93%
Barometer: 30.14 inHg , 1020.7 hPa
Summary: Fog
Clouds: Overcast
Visibility: 1/4 mile , 0.4 km
Cloud details: Overcast 200 ft
2019/06/19 13:56 KSMP 191356Z AUTO VRB04KT 1/4SM FG VV002 04/03 A3014 RMK AO2 SLP211 T00440033
KNUW - Whidbey Is. Nas, Washington, USA
Distance from station: NW 49mi, 79km
Updated: 06/19/2019 6:56am
Mostly cloudy
Mostly cloudy
 Wind from W
Wind: W 17 mph , 28 km/h, Gust: 24 mph , 39 km/h
Temperature: 57°F , 14°C
Dew Point: 46°F , 8°C
Humidity: 67%
Barometer: 30.23 inHg , 1023.7 hPa
Clouds: Mostly cloudy
Visibility: 10 miles , 16 km
Cloud details: Partly cloudy 2500 ft
Mostly cloudy 5000 ft
2019/06/19 13:56 KNUW 191356Z 28015G21KT 10SM SCT025 BKN050 14/08 A3023 RMK AO2 SLP234 T01390083 $
 
KBVS - Burlington/Mt V, Washington, USA
Distance from station: NNW 51mi, 83km
Updated: 06/19/2019 7:35am
Overcast
Overcast
 Wind from varies
Wind: varies 5 mph , 7 km/h
Temperature: 55°F , 13°C
Dew Point: 48°F , 9°C
Humidity: 77%
Barometer: 30.20 inHg , 1022.7 hPa
Clouds: Overcast
Visibility: 10 miles , 16 km
Cloud details: Overcast 3700 ft
2019/06/19 14:35 KBVS 191435Z AUTO VRB04KT 10SM OVC037 13/09 A3020 RMK A01
KSHN - Shelton, Washington, USA
Distance from station: SW 63mi, 101km
Updated: 06/19/2019 7:41am
Mostly cloudy
Mostly cloudy
 Wind from W
Wind: W 5 mph , 7 km/h
Temperature: 52°F , 11°C
Dew Point: 43°F , 6°C
Humidity: 72%
Barometer: 30.18 inHg , 1022 hPa
Clouds: Mostly cloudy
Visibility: 10 miles , 16 km
Cloud details: Mostly cloudy 1500 ft
Mostly cloudy 2100 ft
Mostly cloudy 2700 ft
2019/06/19 14:41 KSHN 191441Z AUTO 26004KT 10SM BKN015 BKN021 BKN027 11/06 A3018 RMK AO2 T01110061
KOLM - Olympia, Washington, USA
Distance from station: SW 68mi, 110km
Updated: 06/19/2019 6:54am
Clear
Clear
 Wind from S
Wind: S 6 mph , 9 km/h
Temperature: 52°F , 11°C
Dew Point: 45°F , 7°C
Humidity: 77%
Barometer: 30.21 inHg , 1023 hPa
Clouds: Clear
Visibility: 10 miles , 16 km
2019/06/19 13:54 KOLM 191354Z AUTO 18005KT 10SM CLR 11/07 A3021 RMK AO2 SLP231 T01110072
 
KCLM - Port Angeles, Washington, USA
Distance from station: WNW 72mi, 115km
Updated: 06/19/2019 6:53am
Mostly cloudy
Mostly cloudy
 Wind from WNW
Wind: WNW 9 mph , 15 km/h
Temperature: 55°F , 13°C
Dew Point: 43°F , 6°C
Humidity: 63%
Barometer: 30.21 inHg , 1023 hPa
Clouds: Mostly cloudy
Visibility: 10 miles , 16 km
Cloud details: Mostly cloudy 4400 ft
2019/06/19 13:53 KCLM 191353Z AUTO 29008KT 10SM BKN044 13/06 A3021 RMK AO2 SLP230 T01330061
CWYJ - Victoria Univ, British Columbia, Canada
Distance from station: NW 75mi, 121km
Updated: 06/19/2019 7:00am

 Wind from WSW
Wind: WSW 8 mph , 13 km/h
Temperature: 54°F , 12°C
Dew Point: 46°F , 8°C
Humidity: 77%
2019/06/19 14:00 CWYJ 191400Z AUTO 25007KT 12/08 RMK AO1 SLP221 T01240075 51006
KBLI - Bellingham, Washington, USA
Distance from station: NNW 75mi, 121km
Updated: 06/19/2019 6:53am
Mostly cloudy
Mostly cloudy
 Wind from S
Wind: S 13 mph , 20 km/h
Temperature: 54°F , 12°C
Dew Point: 46°F , 8°C
Humidity: 77%
Barometer: 30.17 inHg , 1021.7 hPa
Clouds: Mostly cloudy
Visibility: 10 miles , 16 km
Cloud details: Few Clouds 1500 ft
Mostly cloudy 4000 ft
Mostly cloudy 7000 ft
2019/06/19 13:53 KBLI 191353Z 17011KT 10SM FEW015 BKN040 BKN070 12/08 A3017 RMK AO2 SLP221 T01220078